Time;durP1;ratioP1;P1;durP2;ratioP2;P2;SDS_P1;SDS_P2;PMS_P1;PMS_P2;Temp;Humidity;BMP_temperature;BMP_pressure;BME280_temperature;BME280_humidity;BME280_pressure;Samples;Min_cycle;Max_cycle;Signal;HPM_P1;HPM_P2
2022/01/14 00:03:35;;;;;;;53.95;10.90;;;;;;;2.81;100.00;103464.41;5011674;28;20042;-79
2022/01/14 00:06:03;;;;;;;55.55;12.05;;;;;;;2.71;100.00;103455.84;4977480;28;20050;-79
2022/01/14 00:08:31;;;;;;;64.75;12.45;;;;;;;2.37;100.00;103411.84;4979883;28;20050;-81
2022/01/14 00:11:18;;;;;;;64.78;12.00;;;;;;;2.39;100.00;103391.00;4995788;28;20037;-81
2022/01/14 00:16:23;;;;;;;54.17;12.10;;;;;;;2.72;100.00;103448.00;5008116;28;20026;-79
2022/01/14 00:18:52;;;;;;;44.92;11.88;;;;;;;2.43;100.00;103411.81;5007909;28;20056;-80
2022/01/14 00:21:21;;;;;;;72.90;11.80;;;;;;;2.46;100.00;103401.31;4976149;28;20030;-79
2022/01/14 00:23:51;;;;;;;58.70;12.52;;;;;;;2.62;100.00;103432.47;4989277;28;20172;-79
2022/01/14 00:32:20;;;;;;;55.13;12.15;;;;;;;2.53;100.00;103393.44;5013251;28;20026;-79
2022/01/14 00:34:47;;;;;;;52.50;12.10;;;;;;;2.78;100.00;103414.88;4996300;28;20101;-80
2022/01/14 00:37:22;;;;;;;59.38;11.77;;;;;;;2.72;100.00;103401.03;5013442;23;20053;-79
2022/01/14 00:39:53;;;;;;;45.03;12.18;;;;;;;2.61;100.00;103352.47;5006725;28;20042;-80
2022/01/14 00:42:23;;;;;;;45.22;11.77;;;;;;;2.85;100.00;103406.09;5023755;28;20029;-78
2022/01/14 00:44:49;;;;;;;74.15;13.65;;;;;;;2.37;100.00;103335.38;4988145;28;20034;-80
2022/01/14 00:47:18;;;;;;;42.75;12.05;;;;;;;2.71;100.00;103401.03;5004778;28;20038;-80
2022/01/14 00:49:56;;;;;;;47.50;13.25;;;;;;;2.39;100.00;103331.00;4989164;28;20057;-80
2022/01/14 00:52:25;;;;;;;44.20;13.10;;;;;;;2.51;100.00;103330.84;5022418;28;20364;-79
2022/01/14 00:54:51;;;;;;;34.70;12.98;;;;;;;2.83;100.00;103415.69;4989727;28;20041;-79
2022/01/14 00:57:28;;;;;;;47.42;13.50;;;;;;;2.88;100.00;103395.59;4989593;28;20033;-80
2022/01/14 01:00:10;;;;;;;52.97;14.35;;;;;;;2.82;100.00;103369.59;4987854;28;20036;-79
2022/01/14 01:02:36;;;;;;;78.25;15.18;;;;;;;2.72;100.00;103346.25;4990494;28;20033;-78
2022/01/14 01:05:02;;;;;;;42.38;13.80;;;;;;;2.91;100.00;103399.06;5000694;28;20034;-78
2022/01/14 01:07:27;;;;;;;49.25;15.48;;;;;;;2.77;100.00;103369.66;4999665;28;20038;-79
2022/01/14 01:09:58;;;;;;;40.63;15.48;;;;;;;2.50;100.00;103343.03;5011827;23;20046;-79
2022/01/14 01:12:47;;;;;;;41.67;15.82;;;;;;;3.06;100.00;103407.56;4983191;28;20039;-79
2022/01/14 01:15:21;;;;;;;38.42;15.05;;;;;;;2.78;100.00;103362.69;4984387;28;20038;-80
2022/01/14 01:17:48;;;;;;;36.72;14.65;;;;;;;3.00;100.00;103402.41;4970156;28;20033;-80
2022/01/14 01:20:18;;;;;;;42.85;15.40;;;;;;;2.88;100.00;103373.00;4978549;23;20055;-80
2022/01/14 01:22:50;;;;;;;45.40;16.02;;;;;;;2.95;100.00;103359.84;4977329;28;20534;-79
2022/01/14 01:25:22;;;;;;;41.42;15.15;;;;;;;3.22;100.00;103395.13;4959048;29;20037;-79
2022/01/14 01:27:55;;;;;;;44.53;15.70;;;;;;;3.03;100.00;103391.94;4957746;29;20132;-79
2022/01/14 01:30:50;;;;;;;44.53;15.32;;;;;;;3.06;100.00;103361.41;4959271;29;20470;-79
2022/01/14 01:33:21;;;;;;;38.63;13.95;;;;;;;3.16;100.00;103403.06;4934867;29;20074;-80
2022/01/14 01:35:53;;;;;;;42.63;16.38;;;;;;;2.87;100.00;103323.44;4939377;23;20059;-79
2022/01/14 01:38:35;;;;;;;44.83;15.52;;;;;;;2.82;100.00;103312.19;4982216;28;20034;-79
2022/01/14 01:41:12;;;;;;;40.13;15.23;;;;;;;3.29;100.00;103376.78;4984426;28;20023;-80
2022/01/14 01:43:40;;;;;;;42.10;15.30;;;;;;;3.09;100.00;103384.88;4986653;28;20030;-80
2022/01/14 01:46:08;;;;;;;38.35;14.52;;;;;;;3.01;100.00;103358.00;4983684;28;20042;-79
2022/01/14 01:48:34;;;;;;;45.00;14.98;;;;;;;2.73;100.00;103297.53;4965734;28;20035;-80
2022/01/14 01:51:05;;;;;;;49.22;16.35;;;;;;;2.88;100.00;103335.56;4981891;28;20421;-79
2022/01/14 01:53:31;;;;;;;33.42;13.68;;;;;;;2.83;100.00;103322.59;4986263;28;20054;-81
2022/01/14 01:56:00;;;;;;;44.55;15.63;;;;;;;3.07;100.00;103339.66;4985027;28;20035;-81
2022/01/14 01:59:37;;;;;;;39.17;15.57;;;;;;;3.20;100.00;103381.25;5026653;23;20101;-81
2022/01/14 02:02:05;;;;;;;58.70;14.60;;;;;;;3.33;100.00;103367.13;4988126;28;20075;-80
2022/01/14 02:04:32;;;;;;;42.83;15.35;;;;;;;3.22;100.00;103377.72;4952530;28;20077;-79
2022/01/14 02:06:57;;;;;;;45.47;14.25;;;;;;;3.24;100.00;103369.88;4961771;28;20118;-78
2022/01/14 02:09:24;;;;;;;48.70;15.02;;;;;;;3.18;100.00;103369.94;4980367;28;20063;-77
2022/01/14 02:11:52;;;;;;;35.80;15.35;;;;;;;3.12;100.00;103369.16;4961692;28;20027;-77
2022/01/14 02:17:32;;;;;;;40.92;14.55;;;;;;;3.04;100.00;103371.00;4959799;29;20402;-78
2022/01/14 02:22:58;;;;;;;35.42;14.95;;;;;;;3.18;100.00;103380.41;4968645;29;20035;-78
2022/01/14 02:25:29;;;;;;;42.53;14.57;;;;;;;2.87;100.00;103337.34;4965591;29;20035;-78
2022/01/14 02:27:57;;;;;;;38.65;15.32;;;;;;;3.10;100.00;103385.75;4947224;29;20114;-77
2022/01/14 02:30:27;;;;;;;40.50;14.10;;;;;;;3.17;100.00;103384.75;4962281;29;20122;-78
2022/01/14 02:32:53;;;;;;;34.60;12.60;;;;;;;2.89;100.00;103330.34;4946807;29;20031;-78
2022/01/14 02:35:19;;;;;;;32.78;11.60;;;;;;;2.94;100.00;103327.66;4962034;29;20086;-78
2022/01/14 02:37:45;;;;;;;33.13;13.23;;;;;;;3.22;100.00;103377.72;4962412;29;20030;-78
2022/01/14 02:40:11;;;;;;;42.80;13.52;;;;;;;2.90;100.00;103370.34;4948212;29;20122;-78
2022/01/14 02:42:38;;;;;;;58.75;13.40;;;;;;;3.04;100.00;103370.16;4962600;29;20450;-77
2022/01/14 02:45:19;;;;;;;70.60;12.88;;;;;;;2.93;100.00;103375.56;4946034;29;20039;-78
2022/01/14 02:47:45;;;;;;;68.82;14.05;;;;;;;2.46;100.00;103303.97;4944590;29;20119;-78
2022/01/14 02:50:19;;;;;;;48.97;11.82;;;;;;;2.68;100.00;103347.16;4962291;29;20059;-78
2022/01/14 02:55:22;;;;;;;47.08;12.18;;;;;;;2.43;100.00;103299.66;4979271;28;20146;-78
2022/01/14 02:57:50;;;;;;;42.65;12.85;;;;;;;2.95;100.00;103373.75;4980613;28;20054;-77
2022/01/14 03:00:18;;;;;;;34.72;11.52;;;;;;;2.55;100.00;103335.16;4978034;28;20059;-77
2022/01/14 03:02:46;;;;;;;34.08;12.13;;;;;;;2.57;100.00;103328.19;4976737;28;20532;-78
2022/01/14 03:05:12;;;;;;;39.88;11.85;;;;;;;2.80;100.00;103361.78;4978576;28;20035;-77
2022/01/14 03:07:40;;;;;;;34.75;12.07;;;;;;;2.85;100.00;103359.97;4977795;28;20027;-77
2022/01/14 03:10:07;;;;;;;40.60;11.45;;;;;;;2.76;100.00;103365.31;4978691;28;20031;-77
2022/01/14 03:12:33;;;;;;;51.67;11.88;;;;;;;2.43;100.00;103325.75;4982474;28;20078;-78
2022/01/14 03:14:59;;;;;;;31.05;11.48;;;;;;;2.75;100.00;103360.09;5025017;23;20050;-78
2022/01/14 03:17:24;;;;;;;32.85;12.38;;;;;;;2.84;100.00;103368.69;5026659;28;20050;-78
2022/01/14 03:19:50;;;;;;;43.70;12.07;;;;;;;2.78;100.00;103344.44;4972126;28;20041;-79
2022/01/14 03:22:26;;;;;;;33.72;11.73;;;;;;;2.74;100.00;103358.41;5020892;28;20029;-79
2022/01/14 03:27:25;;;;;;;37.60;10.90;;;;;;;2.21;100.00;103303.41;5011932;28;20031;-78
2022/01/14 03:32:16;;;;;;;34.33;10.80;;;;;;;2.33;100.00;103311.06;5006126;23;20150;-78
2022/01/14 03:34:42;;;;;;;37.60;11.00;;;;;;;2.09;100.00;103276.59;4965590;28;20385;-78
2022/01/14 03:37:08;;;;;;;32.55;10.10;;;;;;;2.40;100.00;103317.94;4983719;28;20025;-78
2022/01/14 03:39:33;;;;;;;33.08;9.73;;;;;;;2.15;100.00;103280.00;4950633;28;20022;-78
2022/01/14 03:41:59;;;;;;;45.42;10.30;;;;;;;2.33;100.00;103328.47;4956949;28;20035;-77
2022/01/14 03:44:25;;;;;;;39.85;10.45;;;;;;;2.27;100.00;103301.59;4978658;28;20087;-77
2022/01/14 03:46:50;;;;;;;48.05;9.95;;;;;;;2.09;100.00;103278.34;4960573;28;20063;-78
2022/01/14 03:49:16;;;;;;;34.67;10.38;;;;;;;2.09;100.00;103288.78;4977139;28;20023;-78
2022/01/14 03:51:42;;;;;;;36.30;9.75;;;;;;;1.98;100.00;103280.22;4976304;28;20028;-78
2022/01/14 03:54:08;;;;;;;34.97;9.90;;;;;;;2.19;100.00;103331.25;4960369;28;20109;-77
2022/01/14 03:56:35;;;;;;;61.83;11.13;;;;;;;1.74;100.00;103250.06;4977373;28;20464;-77
2022/01/14 03:59:02;;;;;;;31.17;9.25;;;;;;;2.00;100.00;103299.28;4975509;28;20027;-78
2022/01/14 04:01:27;;;;;;;35.40;10.93;;;;;;;1.99;100.00;103300.16;4976062;28;20027;-78
2022/01/14 04:03:53;;;;;;;32.22;10.00;;;;;;;2.18;100.00;103334.72;4976528;28;20437;-77
2022/01/14 04:06:19;;;;;;;28.13;10.02;;;;;;;2.29;100.00;103320.69;4960336;28;20121;-78
2022/01/14 04:08:45;;;;;;;23.35;10.65;;;;;;;2.09;100.00;103286.19;4977771;28;20042;-78
2022/01/14 04:11:12;;;;;;;26.65;9.65;;;;;;;2.22;100.00;103313.81;4976183;28;20048;-78
2022/01/14 04:16:49;;;;;;;30.05;10.38;;;;;;;2.41;100.00;103311.84;4976316;28;20047;-77
2022/01/14 04:19:15;;;;;;;28.33;11.18;;;;;;;2.30;100.00;103309.38;4944612;28;20381;-78
2022/01/14 04:21:40;;;;;;;21.67;9.82;;;;;;;2.22;100.00;103308.59;4960365;28;20465;-78
2022/01/14 04:24:06;;;;;;;26.90;10.05;;;;;;;2.40;100.00;103311.88;4967128;28;20022;-79
2022/01/14 04:26:32;;;;;;;25.60;10.95;;;;;;;1.96;100.00;103240.28;4965031;28;20041;-77
2022/01/14 04:28:57;;;;;;;25.92;10.20;;;;;;;2.09;100.00;103278.34;4982685;28;20047;-78
2022/01/14 04:31:23;;;;;;;29.17;10.23;;;;;;;2.46;100.00;103328.31;4959983;28;20042;-79
2022/01/14 04:33:55;;;;;;;20.58;9.82;;;;;;;2.58;100.00;103303.81;4974757;28;20512;-78
2022/01/14 04:36:20;;;;;;;24.48;9.88;;;;;;;2.65;100.00;103281.97;4963322;28;20070;-79
2022/01/14 04:38:46;;;;;;;30.50;10.18;;;;;;;2.15;100.00;103257.41;4995149;28;20057;-78
2022/01/14 04:41:12;;;;;;;30.88;9.18;;;;;;;2.46;100.00;103281.34;4960316;28;20031;-78
2022/01/14 04:43:44;;;;;;;23.85;9.02;;;;;;;2.34;100.00;103258.06;4992620;28;20028;-78
2022/01/14 04:48:37;;;;;;;23.45;9.98;;;;;;;2.32;100.00;103205.06;4964098;28;20037;-78
2022/01/14 04:51:05;;;;;;;32.75;9.57;;;;;;;2.82;100.00;103280.88;4982238;28;20101;-78
2022/01/14 04:53:31;;;;;;;20.80;9.02;;;;;;;2.66;100.00;103241.97;4985547;28;20029;-78
2022/01/14 04:55:59;;;;;;;21.70;9.30;;;;;;;2.57;100.00;103226.44;4988176;28;20027;-78
2022/01/14 04:58:27;;;;;;;28.88;10.05;;;;;;;2.91;100.00;103246.81;4981567;28;20037;-78
2022/01/14 05:00:53;;;;;;;22.73;9.55;;;;;;;2.91;100.00;103281.59;4984681;28;20034;-78
2022/01/14 05:03:20;;;;;;;27.20;10.52;;;;;;;2.92;100.00;103254.59;4965688;28;20026;-77
2022/01/14 05:05:52;;;;;;;34.10;10.77;;;;;;;3.21;100.00;103237.63;4965476;28;20039;-78
2022/01/14 05:08:25;;;;;;;28.20;10.30;;;;;;;2.88;100.00;103234.69;4995803;28;20029;-78
2022/01/14 05:13:20;;;;;;;29.17;11.50;;;;;;;3.12;100.00;103284.75;4995384;28;20023;-78
2022/01/14 05:19:48;;;;;;;32.22;11.73;;;;;;;3.10;100.00;103256.06;5000305;28;20044;-79
2022/01/14 05:22:14;;;;;;;;;;;;;;;3.12;100.00;103267.34;4981830;28;20046;-79
2022/01/14 05:24:40;;;;;;;32.03;11.90;;;;;;;3.06;100.00;103241.31;4980614;28;20352;-79
2022/01/14 05:27:06;;;;;;;34.67;12.00;;;;;;;3.02;100.00;103260.56;4978244;28;20082;-78
2022/01/14 05:29:32;;;;;;;28.55;12.15;;;;;;;2.94;100.00;103246.75;4995970;28;20024;-78
2022/01/14 05:32:03;;;;;;;36.58;12.57;;;;;;;2.95;100.00;103235.41;4975977;28;20129;-78
2022/01/14 05:34:33;;;;;;;30.45;11.90;;;;;;;3.16;100.00;103239.44;4961127;28;20396;-78
2022/01/14 05:37:01;;;;;;;29.90;12.00;;;;;;;2.91;100.00;103187.66;4959878;28;20049;-78
2022/01/14 05:39:27;;;;;;;31.15;11.57;;;;;;;3.30;100.00;103215.72;4976144;28;20027;-77
2022/01/14 05:42:07;;;;;;;29.67;11.57;;;;;;;3.32;100.00;103229.59;4975973;28;20023;-78
2022/01/14 05:44:33;;;;;;;26.00;11.27;;;;;;;3.28;100.00;103251.44;4976895;28;20027;-77
2022/01/14 05:47:00;;;;;;;32.72;12.45;;;;;;;3.54;100.00;103259.69;4973535;28;20385;-78
2022/01/14 05:49:26;;;;;;;27.50;12.27;;;;;;;3.23;100.00;103194.06;4957912;28;20354;-79
2022/01/14 05:51:54;;;;;;;26.17;11.85;;;;;;;3.51;100.00;103225.75;4958421;28;20094;-77
2022/01/14 05:54:20;;;;;;;26.95;11.98;;;;;;;3.63;100.00;103268.22;4974577;28;20027;-78
2022/01/14 05:56:47;;;;;;;28.75;12.45;;;;;;;3.59;100.00;103266.56;4964202;28;20530;-78
2022/01/14 05:59:15;;;;;;;24.85;12.38;;;;;;;3.29;100.00;103213.97;4983558;28;20023;-79
2022/01/14 06:01:44;;;;;;;25.95;11.07;;;;;;;3.81;100.00;103261.78;4966837;28;20019;-80
2022/01/14 06:04:10;;;;;;;30.90;11.85;;;;;;;3.69;100.00;103231.53;4979836;28;20517;-79
2022/01/14 06:06:37;;;;;;;27.80;11.30;;;;;;;3.78;100.00;103225.28;4961600;28;20027;-77
2022/01/14 06:09:04;;;;;;;30.30;12.13;;;;;;;3.59;100.00;103211.69;4965568;28;20051;-80
2022/01/14 06:11:30;;;;;;;28.45;12.10;;;;;;;4.01;100.00;103258.81;4981234;28;20043;-77
2022/01/14 06:13:57;;;;;;;36.75;12.15;;;;;;;3.49;100.00;103208.41;4963189;28;20118;-77
2022/01/14 06:16:25;;;;;;;30.08;11.77;;;;;;;3.69;100.00;103221.94;4983849;28;20465;-79
2022/01/14 06:18:54;;;;;;;26.83;11.27;;;;;;;3.71;100.00;103201.88;4978632;28;20106;-77
2022/01/14 06:21:20;;;;;;;27.88;11.88;;;;;;;4.01;100.00;103261.41;4964484;28;20132;-78
2022/01/14 06:23:46;;;;;;;30.00;11.60;;;;;;;3.44;100.00;103189.34;4992621;23;20039;-78
2022/01/14 06:26:12;;;;;;;26.02;10.98;;;;;;;3.75;100.00;103231.44;5000963;28;20046;-78
2022/01/14 06:28:43;;;;;;;30.38;11.75;;;;;;;3.52;100.00;103229.22;5002871;28;20026;-80
2022/01/14 06:31:10;;;;;;;31.17;12.52;;;;;;;3.50;100.00;103229.28;4982307;28;20467;-77
2022/01/14 06:33:35;;;;;;;33.05;13.10;;;;;;;3.75;100.00;103244.50;4998666;28;20037;-78
2022/01/14 06:36:00;;;;;;;35.35;12.80;;;;;;;3.80;100.00;103220.88;4982178;28;20030;-78
2022/01/14 06:38:26;;;;;;;36.15;12.80;;;;;;;3.90;100.00;103223.25;4998467;28;20081;-78
2022/01/14 06:40:52;;;;;;;30.58;12.50;;;;;;;4.10;100.00;103232.47;4999269;28;20026;-78
2022/01/14 06:43:18;;;;;;;31.77;12.82;;;;;;;4.07;100.00;103270.00;5002815;28;20030;-77
2022/01/14 06:45:47;;;;;;;31.17;13.02;;;;;;;4.01;100.00;103227.44;5001688;28;20076;-78
2022/01/14 06:48:13;;;;;;;28.25;12.40;;;;;;;4.16;100.00;103224.50;4996907;28;20116;-78
2022/01/14 06:50:41;;;;;;;33.30;13.07;;;;;;;3.82;100.00;103219.97;4982139;28;20038;-77
2022/01/14 06:53:15;;;;;;;35.83;14.23;;;;;;;3.92;100.00;103252.00;4962420;28;20039;-78
2022/01/14 06:55:40;;;;;;;34.85;13.65;;;;;;;3.84;100.00;103251.28;4980652;28;20106;-79
2022/01/14 06:58:15;;;;;;;32.67;13.48;;;;;;;3.96;100.00;103215.31;4978534;28;20600;-79
2022/01/14 07:00:41;;;;;;;31.85;13.95;;;;;;;4.00;100.00;103275.38;4965544;28;20113;-78
2022/01/14 07:03:07;;;;;;;35.58;13.85;;;;;;;3.94;100.00;103218.84;4984549;28;20102;-77
2022/01/14 07:05:35;;;;;;;30.33;14.05;;;;;;;3.68;100.00;103199.31;4989273;28;20026;-79
2022/01/14 07:08:03;;;;;;;32.78;14.13;;;;;;;4.02;100.00;103264.00;4973832;28;20395;-78
2022/01/14 07:10:57;;;;;;;29.23;14.27;;;;;;;4.30;100.00;103260.81;4982574;28;20058;-78
2022/01/14 07:13:30;;;;;;;32.17;13.82;;;;;;;4.32;100.00;103262.50;4971183;28;20110;-78
2022/01/14 07:15:58;;;;;;;38.22;14.15;;;;;;;3.87;100.00;103227.72;4985171;28;20047;-79
2022/01/14 07:18:24;;;;;;;31.85;14.20;;;;;;;4.27;100.00;103250.41;4982421;28;20381;-78
2022/01/14 07:20:49;;;;;;;35.30;13.75;;;;;;;3.90;100.00;103215.41;4980814;28;20034;-78
2022/01/14 07:23:16;;;;;;;36.78;14.40;;;;;;;4.39;100.00;103278.94;4961473;28;20039;-78
2022/01/14 07:25:42;;;;;;;36.40;14.10;;;;;;;4.49;100.00;103277.84;4977043;28;20047;-78
2022/01/14 07:28:07;;;;;;;32.55;14.05;;;;;;;4.18;100.00;103217.50;4977565;28;20042;-75
2022/01/14 07:30:33;;;;;;;28.98;14.25;;;;;;;4.47;100.00;103281.38;4974483;28;20073;-74
2022/01/14 07:32:59;;;;;;;34.05;13.85;;;;;;;4.35;100.00;103248.50;4975620;28;20027;-77
2022/01/14 07:35:25;;;;;;;29.90;13.88;;;;;;;4.29;100.00;103239.03;4974806;28;20056;-78
2022/01/14 07:37:50;;;;;;;29.77;12.95;;;;;;;4.53;100.00;103244.63;4977864;28;20155;-78
2022/01/14 07:40:16;;;;;;;37.55;14.02;;;;;;;4.16;100.00;103224.50;4983656;28;20082;-79
2022/01/14 07:42:45;;;;;;;30.00;13.73;;;;;;;4.38;100.00;103224.88;4999535;28;20076;-78
2022/01/14 07:45:10;;;;;;;32.20;14.35;;;;;;;4.77;100.00;103259.78;4999558;28;20023;-77
2022/01/14 07:47:37;;;;;;;38.08;14.05;;;;;;;4.88;100.00;103288.31;4996317;28;20027;-76
2022/01/14 07:50:06;;;;;;;36.70;14.82;;;;;;;4.90;100.00;103270.81;4989579;28;20109;-78
2022/01/14 07:52:32;;;;;;;39.97;16.42;;;;;;;4.92;100.00;103283.88;4988274;28;20023;-77
2022/01/14 07:54:58;;;;;;;46.08;16.33;;;;;;;4.65;100.00;103257.41;4988165;28;20094;-76
2022/01/14 07:57:23;;;;;;;30.02;13.07;;;;;;;4.47;100.00;103260.44;4981144;28;20094;-75
2022/01/14 07:59:49;;;;;;;31.98;13.82;;;;;;;4.56;100.00;103274.19;4976912;28;20102;-76
2022/01/14 08:02:15;;;;;;;28.52;11.07;;;;;;;4.68;100.00;103277.44;4993299;28;20052;-76
2022/01/14 08:04:41;;;;;;;29.98;10.18;;;;;;;4.71;100.00;103293.94;4975966;28;20030;-75
2022/01/14 08:07:11;;;;;;;26.83;11.10;;;;;;;4.61;100.00;103279.34;4995202;28;20488;-76
2022/01/14 08:09:41;;;;;;;29.92;10.57;;;;;;;4.70;100.00;103287.00;4997477;28;20022;-77
2022/01/14 08:12:12;;;;;;;33.08;11.75;;;;;;;4.77;100.00;103282.47;4998815;28;20058;-78
2022/01/14 08:14:39;;;;;;;27.80;10.65;;;;;;;4.73;100.00;103284.28;4969145;28;20037;-78
2022/01/14 08:17:08;;;;;;;24.05;9.70;;;;;;;4.34;100.00;103237.19;4993958;28;20129;-77
2022/01/14 08:19:34;;;;;;;27.17;10.60;;;;;;;4.67;100.00;103279.19;4985224;28;20040;-76
2022/01/14 08:22:02;;;;;;;28.17;10.52;;;;;;;4.41;100.00;103245.75;5010583;28;20046;-77
2022/01/14 08:24:29;;;;;;;28.92;10.55;;;;;;;4.52;100.00;103262.09;4999246;28;20047;-78
2022/01/14 08:26:57;;;;;;;26.50;10.45;;;;;;;4.44;100.00;103231.75;4997262;28;20138;-77
2022/01/14 08:29:24;;;;;;;32.33;11.00;;;;;;;4.64;100.00;103273.19;4997806;28;20483;-75
2022/01/14 08:31:49;;;;;;;25.92;10.73;;;;;;;4.79;100.00;103273.69;4989355;28;20023;-73
2022/01/14 08:34:15;;;;;;;24.45;11.20;;;;;;;4.81;100.00;103300.69;4984885;28;20027;-78
2022/01/14 08:36:41;;;;;;;31.65;12.07;;;;;;;4.54;100.00;103234.13;4978594;28;20032;-75
2022/01/14 08:39:07;;;;;;;27.70;10.95;;;;;;;4.53;100.00;103269.03;4995413;28;20436;-74
2022/01/14 08:41:32;;;;;;;24.05;10.57;;;;;;;4.64;100.00;103267.94;4997166;28;20447;-74
2022/01/14 08:43:59;;;;;;;28.30;10.52;;;;;;;4.68;100.00;103283.53;4996093;28;20030;-75
2022/01/14 08:46:26;;;;;;;29.42;10.57;;;;;;;4.94;100.00;103298.66;4994275;28;20030;-73
2022/01/14 08:48:54;;;;;;;29.02;10.13;;;;;;;4.85;100.00;103311.09;4973614;28;20043;-77
2022/01/14 08:51:20;;;;;;;25.40;11.43;;;;;;;4.64;100.00;103247.88;4976166;28;20035;-74
2022/01/14 08:53:46;;;;;;;28.17;10.30;;;;;;;4.80;100.00;103295.50;4975154;28;20039;-73
2022/01/14 08:56:12;;;;;;;24.20;10.10;;;;;;;4.54;100.00;103270.78;4977028;28;20031;-74
2022/01/14 08:58:37;;;;;;;29.38;10.38;;;;;;;4.98;100.00;103278.50;4974301;28;20109;-73
2022/01/14 09:01:03;;;;;;;31.00;11.30;;;;;;;4.91;100.00;103284.78;4973327;28;20034;-74
2022/01/14 09:03:29;;;;;;;23.65;10.07;;;;;;;4.76;100.00;103270.28;4976804;28;20042;-75
2022/01/14 09:05:55;;;;;;;26.27;9.93;;;;;;;4.58;100.00;103229.66;4975497;28;20026;-75
2022/01/14 09:08:20;;;;;;;24.20;9.13;;;;;;;4.92;100.00;103287.34;4977894;28;20104;-75
2022/01/14 09:10:46;;;;;;;27.30;9.45;;;;;;;5.12;100.00;103284.25;4997334;28;20030;-75
2022/01/14 09:13:12;;;;;;;22.38;8.43;;;;;;;5.06;100.00;103300.09;4979560;28;20034;-74
2022/01/14 09:15:39;;;;;;;22.02;9.68;;;;;;;5.05;100.00;103287.94;4991275;28;20034;-74
2022/01/14 09:18:05;;;;;;;28.02;9.18;;;;;;;5.08;100.00;103293.06;4991662;28;20031;-75
2022/01/14 09:20:31;;;;;;;22.75;8.52;;;;;;;5.28;100.00;103273.41;4992081;28;20030;-72
2022/01/14 09:22:58;;;;;;;22.73;8.90;;;;;;;5.20;100.00;103289.28;4992506;28;20022;-73
2022/01/14 09:25:25;;;;;;;26.23;9.35;;;;;;;5.35;100.00;103288.06;4992992;28;20062;-73
2022/01/14 09:27:52;;;;;;;25.65;8.85;;;;;;;5.08;100.00;103295.69;4994951;28;20156;-74
2022/01/14 09:30:19;;;;;;;26.77;9.55;;;;;;;5.17;100.00;103265.81;4988194;28;20113;-72
2022/01/14 09:32:45;;;;;;;24.77;8.68;;;;;;;5.14;100.00;103268.50;4988665;28;20379;-74
2022/01/14 09:35:13;;;;;;;19.92;8.60;;;;;;;5.30;100.00;103269.84;4994698;28;20022;-73
2022/01/14 09:37:41;;;;;;;20.02;8.15;;;;;;;4.82;100.00;103231.72;4981279;28;20041;-74
2022/01/14 09:40:08;;;;;;;20.40;8.20;;;;;;;5.13;100.00;103262.41;5401293;23;20073;-73
2022/01/14 09:42:34;;;;;;;23.98;8.02;;;;;;;5.40;100.00;103294.06;4973691;28;20038;-76
2022/01/14 09:45:05;;;;;;;24.52;8.27;;;;;;;5.28;100.00;103289.13;4963008;28;20040;-73
2022/01/14 09:47:31;;;;;;;24.00;6.95;;;;;;;5.33;100.00;103293.34;4991159;28;20154;-76
2022/01/14 09:49:56;;;;;;;22.23;8.40;;;;;;;5.33;100.00;103289.88;4999158;28;20066;-74
2022/01/14 09:52:22;;;;;;;28.52;8.80;;;;;;;5.13;100.00;103279.88;4977937;28;20380;-76
2022/01/14 09:54:50;;;;;;;21.38;7.85;;;;;;;5.07;100.00;103266.94;4979136;28;20445;-76
2022/01/14 09:57:17;;;;;;;24.77;7.78;;;;;;;5.18;100.00;103297.22;4976417;28;20046;-79
2022/01/14 09:59:55;;;;;;;19.42;7.22;;;;;;;5.31;100.00;103291.66;4986080;28;20055;-77
2022/01/14 10:02:38;;;;;;;24.92;8.30;;;;;;;5.80;100.00;103290.41;4946322;28;20018;-77
2022/01/14 10:05:08;;;;;;;28.20;8.38;;;;;;;5.22;100.00;103228.13;4967434;28;20027;-78
2022/01/14 10:07:33;;;;;;;28.20;8.90;;;;;;;5.65;100.00;103300.41;4950729;28;20034;-77
2022/01/14 10:10:22;;;;;;;18.05;7.88;;;;;;;5.18;100.00;103249.22;4983162;28;20026;-76
2022/01/14 10:12:47;;;;;;;26.45;9.43;;;;;;;5.20;100.00;103289.28;4968864;28;20031;-76
2022/01/14 10:15:13;;;;;;;31.90;10.35;;;;;;;5.00;100.00;103238.28;4984126;28;20035;-78
2022/01/14 10:17:44;;;;;;;23.80;8.40;;;;;;;5.61;100.00;103311.00;5006172;28;20027;-76
2022/01/14 10:20:13;;;;;;;18.05;7.47;;;;;;;5.48;100.00;103299.97;4987281;28;20034;-75
2022/01/14 10:22:48;;;;;;;20.25;6.88;;;;;;;5.39;100.00;103289.72;4955062;28;20039;-74
2022/01/14 10:25:19;;;;;;;26.08;6.95;;;;;;;5.38;100.00;103281.00;4983174;28;20114;-80
2022/01/14 10:27:50;;;;;;;24.65;7.78;;;;;;;5.24;100.00;103317.16;4994462;28;20022;-73
2022/01/14 10:30:36;;;;;;;20.05;6.45;;;;;;;5.39;100.00;103314.16;4995838;28;20026;-74
2022/01/14 10:33:08;;;;;;;23.23;7.25;;;;;;;5.15;100.00;103309.50;4993451;28;20031;-75
2022/01/14 10:35:36;;;;;;;21.23;7.40;;;;;;;5.43;100.00;103307.94;4977065;28;20055;-76
2022/01/14 10:38:07;;;;;;;21.85;7.47;;;;;;;5.38;100.00;103280.13;4979621;28;20354;-77
2022/01/14 10:40:41;;;;;;;25.33;7.93;;;;;;;5.25;100.00;103278.75;4948646;28;20038;-76
2022/01/14 10:43:09;;;;;;;21.98;7.72;;;;;;;5.51;100.00;103325.22;4960248;28;20035;-77
2022/01/14 10:45:36;;;;;;;33.60;14.52;;;;;;;5.58;100.00;103306.69;4978341;28;20027;-76
2022/01/14 10:48:08;;;;;;;28.38;9.88;;;;;;;5.32;100.00;103285.53;4944355;28;20103;-76
2022/01/14 10:50:37;;;;;;;21.67;7.95;;;;;;;5.67;100.00;103310.81;4991965;28;20030;-76
2022/01/14 10:53:35;;;;;;;23.63;7.78;;;;;;;5.53;100.00;103311.19;4982241;28;20041;-76
2022/01/14 10:56:04;;;;;;;22.60;7.65;;;;;;;5.50;100.00;103290.31;4978465;28;20045;-76
2022/01/14 10:58:35;;;;;;;24.27;9.38;;;;;;;5.10;100.00;103252.00;4965052;28;20039;-77
2022/01/14 11:01:04;;;;;;;41.90;17.60;;;;;;;5.55;100.00;103285.81;4984675;28;20026;-77
2022/01/14 11:03:53;;;;;;;26.00;10.02;;;;;;;5.49;100.00;103306.91;4982160;28;20038;-76
2022/01/14 11:06:27;;;;;;;22.23;8.80;;;;;;;5.60;100.00;103286.53;4980250;28;20090;-77
2022/01/14 11:09:10;;;;;;;24.17;8.32;;;;;;;5.72;100.00;103302.84;4961550;28;20127;-77
2022/01/14 11:11:44;;;;;;;20.90;8.43;;;;;;;5.42;100.00;103287.88;4960333;28;20037;-75
2022/01/14 11:14:10;;;;;;;25.57;8.03;;;;;;;5.46;100.00;103288.66;4976611;28;20019;-74
2022/01/14 11:16:38;;;;;;;25.15;8.52;;;;;;;5.68;100.00;103278.50;4959703;28;20369;-75
2022/01/14 11:19:07;;;;;;;21.83;8.18;;;;;;;5.35;100.00;103257.47;4962201;28;20027;-75
2022/01/14 11:24:32;;;;;;;21.33;8.80;;;;;;;4.96;100.00;103290.75;4975896;28;20109;-75
2022/01/14 11:27:10;;;;;;;22.52;8.82;;;;;;;5.44;100.00;103308.81;4976074;28;20034;-75
2022/01/14 11:29:40;;;;;;;22.55;8.88;;;;;;;5.15;100.00;103271.06;4966545;28;20023;-77
2022/01/14 11:32:08;;;;;;;21.02;8.10;;;;;;;5.44;100.00;103275.59;4960274;28;20042;-76
2022/01/14 11:34:36;;;;;;;19.25;7.35;;;;;;;5.63;100.00;103309.19;4975719;28;20027;-74
2022/01/14 11:37:14;;;;;;;17.05;5.90;;;;;;;5.01;100.00;103234.75;4976094;28;20130;-75
2022/01/14 11:39:53;;;;;;;21.30;6.25;;;;;;;5.55;100.00;103305.91;4958899;28;20366;-75
2022/01/14 11:42:19;;;;;;;18.35;5.65;;;;;;;5.58;100.00;103293.56;4978167;28;20043;-76
2022/01/14 11:44:56;;;;;;;16.08;6.32;;;;;;;5.63;100.00;103270.75;4976046;28;20110;-77
2022/01/14 11:47:38;;;;;;;17.27;6.03;;;;;;;5.99;100.00;103283.75;4979308;28;20055;-75
2022/01/14 11:50:06;;;;;;;20.13;6.30;;;;;;;5.64;100.00;103267.22;4961019;28;20027;-75
2022/01/14 11:52:38;;;;;;;18.95;6.38;;;;;;;6.09;100.00;103287.00;4959411;28;20058;-76
2022/01/14 11:55:35;;;;;;;15.27;6.03;;;;;;;6.02;100.00;103274.97;4961256;28;20393;-81
2022/01/14 11:58:07;;;;;;;15.57;5.78;;;;;;;6.04;100.00;103287.16;4944751;28;20127;-77
2022/01/14 12:00:41;;;;;;;19.80;6.18;;;;;;;6.04;100.00;103266.16;4980432;28;20109;-77